Time;durP1;ratioP1;P1;durP2;ratioP2;P2;SDS_P1;SDS_P2;PMS_P1;PMS_P2;Temp;Humidity;BMP_temperature;BMP_pressure;BME280_temperature;BME280_humidity;BME280_pressure;Samples;Min_cycle;Max_cycle;Signal;HPM_P1;HPM_P2
2022/11/29 00:00:13;;;;;;;7.35;5.65;;;;;;;;;;2081530;28;20013;-67
2022/11/29 00:01:32;;;;;;;5.80;5.18;;;;;;;;;;2080103;28;20024;-68
2022/11/29 00:02:52;;;;;;;6.78;5.55;;;;;;;;;;2085083;28;20032;-67
2022/11/29 00:04:11;;;;;;;6.75;6.07;;;;;;;;;;2085496;28;20139;-67
2022/11/29 00:05:32;;;;;;;6.43;5.80;;;;;;;;;;2084706;28;20025;-67
2022/11/29 00:06:51;;;;;;;6.75;6.15;;;;;;;;;;2085225;28;20053;-67
2022/11/29 00:08:11;;;;;;;7.07;5.95;;;;;;;;;;2086039;28;20037;-67
2022/11/29 00:09:30;;;;;;;6.65;6.05;;;;;;;;;;2077866;28;20022;-67
2022/11/29 00:10:49;;;;;;;7.10;6.13;;;;;;;;;;2083041;28;20120;-67
2022/11/29 00:12:11;;;;;;;7.38;6.68;;;;;;;;;;2079420;28;20025;-67
2022/11/29 00:13:31;;;;;;;7.10;6.50;;;;;;;;;;2085809;28;20021;-68
2022/11/29 00:14:50;;;;;;;6.78;6.18;;;;;;;;;;2082301;28;20037;-67
2022/11/29 00:16:10;;;;;;;6.93;6.32;;;;;;;;;;2083661;28;20482;-68
2022/11/29 00:17:29;;;;;;;7.75;6.93;;;;;;;;;;2081515;28;20033;-67
2022/11/29 00:18:48;;;;;;;7.85;6.90;;;;;;;;;;2086223;28;20473;-67
2022/11/29 00:20:09;;;;;;;8.15;7.40;;;;;;;;;;2085345;28;20021;-67
2022/11/29 00:21:28;;;;;;;7.88;7.13;;;;;;;;;;2081932;28;20453;-68
2022/11/29 00:22:47;;;;;;;8.13;6.90;;;;;;;;;;2084175;28;20501;-67
2022/11/29 00:24:06;;;;;;;8.68;7.57;;;;;;;;;;2087632;28;20024;-67
2022/11/29 00:25:25;;;;;;;8.18;7.22;;;;;;;;;;2088254;28;20027;-67
2022/11/29 00:26:44;;;;;;;8.55;7.05;;;;;;;;;;2086189;28;20350;-67
2022/11/29 00:28:03;;;;;;;8.02;7.22;;;;;;;;;;2086039;28;20032;-67
2022/11/29 00:29:22;;;;;;;7.78;6.85;;;;;;;;;;2087051;28;20029;-67
2022/11/29 00:30:41;;;;;;;8.07;7.15;;;;;;;;;;2084603;28;20045;-67
2022/11/29 00:32:00;;;;;;;8.15;6.97;;;;;;;;;;2084530;28;20033;-67
2022/11/29 00:33:19;;;;;;;10.43;7.88;;;;;;;;;;2085243;28;20041;-67
2022/11/29 00:34:38;;;;;;;8.18;7.35;;;;;;;;;;2084736;28;20041;-66
2022/11/29 00:36:00;;;;;;;8.20;7.22;;;;;;;;;;2085881;28;20477;-67
2022/11/29 00:37:19;;;;;;;9.00;7.35;;;;;;;;;;2087347;28;20534;-67
2022/11/29 00:38:38;;;;;;;8.95;7.28;;;;;;;;;;2087868;28;20493;-67
2022/11/29 00:39:56;;;;;;;9.27;7.57;;;;;;;;;;2088038;28;20029;-67
2022/11/29 00:41:15;;;;;;;8.65;7.85;;;;;;;;;;2084353;28;20017;-67
2022/11/29 00:42:34;;;;;;;8.13;7.32;;;;;;;;;;2085275;28;20025;-67
2022/11/29 00:43:53;;;;;;;7.80;7.00;;;;;;;;;;2084205;28;20109;-66
2022/11/29 00:45:12;;;;;;;8.48;7.50;;;;;;;;;;2084905;28;20112;-67
2022/11/29 00:46:31;;;;;;;9.63;7.47;;;;;;;;;;2084210;28;20108;-66
2022/11/29 00:47:50;;;;;;;9.00;8.02;;;;;;;;;;2084230;28;20036;-67
2022/11/29 00:49:09;;;;;;;8.88;7.95;;;;;;;;;;2087283;28;20041;-69
2022/11/29 00:50:28;;;;;;;9.50;8.40;;;;;;;;;;2089703;28;20151;-69
2022/11/29 00:51:47;;;;;;;9.30;8.32;;;;;;;;;;2084767;28;20033;-69
2022/11/29 00:53:06;;;;;;;10.10;8.63;;;;;;;;;;2083595;28;20473;-69
2022/11/29 00:54:25;;;;;;;9.93;8.05;;;;;;;;;;2085562;28;20037;-69
2022/11/29 00:55:46;;;;;;;9.40;8.43;;;;;;;;;;2086503;28;20033;-68
2022/11/29 00:57:05;;;;;;;10.65;8.50;;;;;;;;;;2081076;28;20033;-69
2022/11/29 00:58:23;;;;;;;9.65;8.65;;;;;;;;;;2085631;28;20390;-69
2022/11/29 00:59:42;;;;;;;11.18;8.10;;;;;;;;;;2086607;28;20115;-69
2022/11/29 01:01:01;;;;;;;9.93;8.35;;;;;;;;;;2082795;28;20033;-69
2022/11/29 01:02:20;;;;;;;11.73;8.07;;;;;;;;;;2085140;28;20029;-69
2022/11/29 01:03:39;;;;;;;8.88;7.97;;;;;;;;;;2087601;28;20095;-69
2022/11/29 01:04:58;;;;;;;11.27;8.13;;;;;;;;;;2088600;28;20060;-67
2022/11/29 01:06:17;;;;;;;9.50;8.55;;;;;;;;;;2087808;28;20477;-68
2022/11/29 01:07:36;;;;;;;9.30;8.32;;;;;;;;;;2086896;28;20116;-67
2022/11/29 01:08:55;;;;;;;9.52;8.48;;;;;;;;;;2086317;28;20029;-67
2022/11/29 01:10:14;;;;;;;9.50;8.50;;;;;;;;;;2084438;28;20025;-67
2022/11/29 01:11:33;;;;;;;9.18;8.27;;;;;;;;;;2086650;28;20113;-67
2022/11/29 01:12:53;;;;;;;8.75;7.95;;;;;;;;;;2080185;28;20029;-67
2022/11/29 01:14:12;;;;;;;9.32;8.32;;;;;;;;;;2082820;28;20029;-66
2022/11/29 01:15:31;;;;;;;9.07;8.07;;;;;;;;;;2082563;28;20410;-66
2022/11/29 01:16:50;;;;;;;9.55;8.40;;;;;;;;;;2086703;28;20033;-67
2022/11/29 01:18:09;;;;;;;9.10;8.20;;;;;;;;;;2085529;28;20045;-67
2022/11/29 01:19:28;;;;;;;9.73;8.73;;;;;;;;;;2086412;28;20049;-67
2022/11/29 01:20:54;;;;;;;8.98;7.93;;;;;;;;;;2088143;28;20056;-67
2022/11/29 01:22:12;;;;;;;11.85;7.75;;;;;;;;;;2088032;28;20028;-67
2022/11/29 01:23:32;;;;;;;9.60;8.65;;;;;;;;;;2086461;28;20026;-67
2022/11/29 01:24:51;;;;;;;10.35;8.15;;;;;;;;;;2084871;28;20029;-67
2022/11/29 01:26:11;;;;;;;10.20;8.50;;;;;;;;;;2096840;28;20111;-67
2022/11/29 01:27:30;;;;;;;9.75;8.32;;;;;;;;;;2088828;28;20025;-67
2022/11/29 01:28:50;;;;;;;8.15;7.35;;;;;;;;;;2086225;28;20040;-67
2022/11/29 01:30:10;;;;;;;10.73;8.68;;;;;;;;;;2084797;28;20460;-68
2022/11/29 01:31:29;;;;;;;9.32;8.35;;;;;;;;;;2088337;28;20104;-67
2022/11/29 01:32:48;;;;;;;9.35;8.35;;;;;;;;;;2085860;28;20449;-67
2022/11/29 01:34:07;;;;;;;9.57;8.20;;;;;;;;;;2088190;28;20028;-67
2022/11/29 01:35:26;;;;;;;15.00;9.38;;;;;;;;;;2083211;28;20023;-67
2022/11/29 01:36:45;;;;;;;8.35;7.55;;;;;;;;;;2086135;28;20389;-68
2022/11/29 01:38:04;;;;;;;10.00;8.77;;;;;;;;;;2085870;28;20473;-68
2022/11/29 01:39:23;;;;;;;9.02;8.13;;;;;;;;;;2087257;28;20036;-68
2022/11/29 01:40:42;;;;;;;10.65;8.60;;;;;;;;;;2082873;28;20029;-68
2022/11/29 01:42:01;;;;;;;9.10;8.18;;;;;;;;;;2083295;28;20052;-68
2022/11/29 01:43:21;;;;;;;8.18;7.38;;;;;;;;;;2084394;28;20033;-68
2022/11/29 01:44:43;;;;;;;8.50;7.13;;;;;;;;;;2086709;28;20061;-68
2022/11/29 01:46:02;;;;;;;8.60;7.75;;;;;;;;;;2083801;28;20033;-68
2022/11/29 01:47:21;;;;;;;9.40;7.32;;;;;;;;;;2084969;28;20033;-68
2022/11/29 01:48:39;;;;;;;11.13;8.13;;;;;;;;;;2084361;28;20033;-68
2022/11/29 01:49:58;;;;;;;9.45;8.43;;;;;;;;;;2088648;28;20068;-68
2022/11/29 01:51:17;;;;;;;9.55;7.60;;;;;;;;;;2087043;28;20033;-67
2022/11/29 01:52:36;;;;;;;8.55;7.68;;;;;;;;;;2086014;28;20042;-67
2022/11/29 01:53:55;;;;;;;8.68;7.78;;;;;;;;;;2083637;28;20030;-68
2022/11/29 01:55:14;;;;;;;8.45;7.50;;;;;;;;;;2085092;28;20037;-67
2022/11/29 01:56:34;;;;;;;8.30;7.50;;;;;;;;;;2088422;28;20056;-67
2022/11/29 01:57:53;;;;;;;10.02;7.93;;;;;;;;;;2086157;28;20069;-68
2022/11/29 01:59:14;;;;;;;8.77;7.88;;;;;;;;;;2084746;28;20033;-67
2022/11/29 02:00:34;;;;;;;9.20;8.30;;;;;;;;;;2082574;28;20033;-67
2022/11/29 02:01:55;;;;;;;8.50;7.70;;;;;;;;;;2086703;28;20477;-68
2022/11/29 02:03:16;;;;;;;8.88;7.18;;;;;;;;;;2087608;28;20071;-68
2022/11/29 02:04:36;;;;;;;8.55;7.65;;;;;;;;;;2085647;28;20053;-68
2022/11/29 02:05:55;;;;;;;9.07;7.72;;;;;;;;;;2083293;28;20473;-68
2022/11/29 02:07:15;;;;;;;8.77;7.90;;;;;;;;;;2083235;28;20143;-68
2022/11/29 02:08:38;;;;;;;8.60;7.65;;;;;;;;;;2081875;28;20038;-68
2022/11/29 02:09:57;;;;;;;8.68;7.75;;;;;;;;;;2085371;28;20605;-68
2022/11/29 02:11:28;;;;;;;8.77;7.78;;;;;;;;;;2080634;28;20056;-68
2022/11/29 02:12:53;;;;;;;12.20;8.20;;;;;;;;;;2083135;28;20057;-68
2022/11/29 02:14:31;;;;;;;8.93;8.00;;;;;;;;;;2081087;28;20041;-68
2022/11/29 02:16:09;;;;;;;8.80;7.90;;;;;;;;;;2083917;28;20390;-68
2022/11/29 02:17:40;;;;;;;9.88;7.88;;;;;;;;;;2083178;28;20478;-67
2022/11/29 02:19:02;;;;;;;9.75;8.73;;;;;;;;;;2083858;28;20033;-68
2022/11/29 02:20:27;;;;;;;9.32;8.23;;;;;;;;;;2083192;28;20476;-68
2022/11/29 02:22:09;;;;;;;11.75;8.35;;;;;;;;;;2086048;28;20029;-68
2022/11/29 02:23:28;;;;;;;8.93;7.93;;;;;;;;;;2083276;28;20041;-69
2022/11/29 02:24:47;;;;;;;10.60;7.95;;;;;;;;;;2087084;28;20432;-69
2022/11/29 02:26:25;;;;;;;9.98;7.93;;;;;;;;;;2088759;28;20029;-66
2022/11/29 02:27:59;;;;;;;8.48;7.68;;;;;;;;;;2087687;28;20513;-67
2022/11/29 02:29:24;;;;;;;9.25;8.38;;;;;;;;;;2087211;28;20497;-67
2022/11/29 02:30:46;;;;;;;9.13;8.13;;;;;;;;;;2078414;28;20061;-67
2022/11/29 02:32:14;;;;;;;9.02;8.13;;;;;;;;;;2085149;28;20033;-67
2022/11/29 02:33:52;;;;;;;11.82;8.88;;;;;;;;;;2086666;28;20037;-67
2022/11/29 02:35:19;;;;;;;9.82;8.25;;;;;;;;;;2086128;28;20501;-67
2022/11/29 02:37:00;;;;;;;9.40;8.18;;;;;;;;;;2085198;28;20030;-67
2022/11/29 02:38:37;;;;;;;8.45;7.43;;;;;;;;;;2084240;28;20037;-67
2022/11/29 02:39:59;;;;;;;8.38;7.57;;;;;;;;;;2085678;28;20377;-67
2022/11/29 02:41:34;;;;;;;10.40;8.00;;;;;;;;;;2087406;28;20029;-67
2022/11/29 02:43:09;;;;;;;10.52;8.77;;;;;;;;;;2080477;28;20033;-67
2022/11/29 02:44:37;;;;;;;9.48;8.15;;;;;;;;;;2084860;28;20029;-67
2022/11/29 02:46:15;;;;;;;10.68;8.75;;;;;;;;;;2088633;28;20115;-67
2022/11/29 02:47:52;;;;;;;9.52;8.20;;;;;;;;;;2084778;28;20485;-67
2022/11/29 02:49:11;;;;;;;10.27;8.27;;;;;;;;;;2083384;28;20042;-67
2022/11/29 02:50:31;;;;;;;9.52;8.38;;;;;;;;;;2084955;28;20021;-67
2022/11/29 02:51:59;;;;;;;9.23;8.07;;;;;;;;;;2087433;28;20029;-67
2022/11/29 02:53:31;;;;;;;8.07;7.30;;;;;;;;;;2086625;28;20025;-67
2022/11/29 02:55:09;;;;;;;9.23;7.85;;;;;;;;;;2085487;28;20041;-67
2022/11/29 02:56:37;;;;;;;10.57;7.47;;;;;;;;;;2075319;28;20401;-67
2022/11/29 02:58:07;;;;;;;8.80;7.82;;;;;;;;;;2076383;28;20750;-67
2022/11/29 02:59:37;;;;;;;8.85;7.88;;;;;;;;;;2084977;28;20037;-67
2022/11/29 03:01:22;;;;;;;9.15;7.95;;;;;;;;;;2082708;28;20104;-67
2022/11/29 03:02:48;;;;;;;9.93;7.18;;;;;;;;;;2069376;28;20033;-67
2022/11/29 03:04:20;;;;;;;8.18;7.45;;;;;;;;;;2084668;28;20042;-68
2022/11/29 03:05:43;;;;;;;8.77;7.75;;;;;;;;;;2085126;28;20064;-68
2022/11/29 03:07:08;;;;;;;8.30;7.50;;;;;;;;;;2086463;28;20064;-67
2022/11/29 03:08:45;;;;;;;8.23;7.35;;;;;;;;;;2087498;28;20029;-67
2022/11/29 03:10:07;;;;;;;8.38;7.53;;;;;;;;;;2085904;28;20473;-67
2022/11/29 03:11:49;;;;;;;8.82;7.35;;;;;;;;;;2086964;28;20037;-67
2022/11/29 03:13:23;;;;;;;7.63;6.85;;;;;;;;;;2086605;28;20033;-67
2022/11/29 03:15:01;;;;;;;7.88;7.10;;;;;;;;;;2085671;28;20025;-67
2022/11/29 03:16:38;;;;;;;7.78;7.05;;;;;;;;;;2087409;28;20115;-67
2022/11/29 03:18:16;;;;;;;8.38;7.57;;;;;;;;;;2086537;28;20024;-67
2022/11/29 03:19:41;;;;;;;9.43;7.13;;;;;;;;;;2084819;28;20470;-67
2022/11/29 03:21:16;;;;;;;8.35;7.00;;;;;;;;;;2084085;28;20028;-67
2022/11/29 03:22:54;;;;;;;8.40;7.55;;;;;;;;;;2083334;28;20494;-67
2022/11/29 03:24:31;;;;;;;8.52;7.70;;;;;;;;;;2085225;28;20021;-67
2022/11/29 03:25:53;;;;;;;8.13;7.38;;;;;;;;;;2086648;28;20041;-67
2022/11/29 03:27:15;;;;;;;8.85;7.78;;;;;;;;;;2086805;28;20029;-67
2022/11/29 03:28:40;;;;;;;8.05;7.35;;;;;;;;;;2086930;28;20339;-67
2022/11/29 03:30:01;;;;;;;8.80;7.53;;;;;;;;;;2084036;28;20091;-67
2022/11/29 03:31:28;;;;;;;9.50;7.63;;;;;;;;;;2087652;28;20443;-67
2022/11/29 03:33:06;;;;;;;8.93;7.60;;;;;;;;;;2083997;28;20032;-67
2022/11/29 03:34:24;;;;;;;8.88;7.97;;;;;;;;;;2085696;28;20384;-67
2022/11/29 03:35:52;;;;;;;12.15;8.30;;;;;;;;;;2085308;28;20386;-67
2022/11/29 03:37:19;;;;;;;8.95;8.02;;;;;;;;;;2080770;28;20029;-68
2022/11/29 03:38:39;;;;;;;9.02;7.70;;;;;;;;;;2073940;28;20025;-67
2022/11/29 03:39:58;;;;;;;10.50;8.10;;;;;;;;;;2082060;28;20389;-67
2022/11/29 03:41:43;;;;;;;11.73;8.00;;;;;;;;;;2082230;28;20579;-67
2022/11/29 03:43:09;;;;;;;13.32;8.27;;;;;;;;;;2082619;28;20021;-66
2022/11/29 03:44:32;;;;;;;9.15;7.65;;;;;;;;;;2081550;28;20041;-67
2022/11/29 03:45:55;;;;;;;10.05;9.05;;;;;;;;;;2084169;28;20025;-67
2022/11/29 03:47:14;;;;;;;;;;;;;;;;;;2086968;28;20511;-67
2022/11/29 03:48:36;;;;;;;10.35;8.32;;;;;;;;;;2084949;28;20341;-67
2022/11/29 03:50:03;;;;;;;10.65;8.55;;;;;;;;;;2084983;28;20037;-67
2022/11/29 03:51:27;;;;;;;9.35;8.00;;;;;;;;;;2085289;28;20509;-67
2022/11/29 03:52:49;;;;;;;10.23;8.65;;;;;;;;;;2085363;28;20033;-67
2022/11/29 03:54:22;;;;;;;11.23;9.13;;;;;;;;;;2085732;28;20037;-67
2022/11/29 03:55:55;;;;;;;11.10;8.52;;;;;;;;;;2080440;28;20040;-67
2022/11/29 03:57:19;;;;;;;14.70;9.32;;;;;;;;;;2087204;28;20037;-66
2022/11/29 03:58:47;;;;;;;10.90;8.00;;;;;;;;;;2085944;28;20397;-66
2022/11/29 04:00:08;;;;;;;10.88;8.63;;;;;;;;;;2082032;28;20029;-67
2022/11/29 04:01:46;;;;;;;11.45;9.43;;;;;;;;;;2086288;28;20033;-67
2022/11/29 04:03:23;;;;;;;10.35;8.60;;;;;;;;;;2085936;28;20029;-67
2022/11/29 04:04:46;;;;;;;12.10;8.75;;;;;;;;;;2086382;28;20041;-66
2022/11/29 04:06:23;;;;;;;11.38;8.50;;;;;;;;;;2086820;28;20061;-67
2022/11/29 04:07:45;;;;;;;10.38;9.35;;;;;;;;;;2088690;28;20088;-67
2022/11/29 04:09:19;;;;;;;11.53;8.20;;;;;;;;;;2087971;28;20029;-67
2022/11/29 04:10:38;;;;;;;10.52;8.82;;;;;;;;;;2081699;28;20259;-67
2022/11/29 04:11:58;;;;;;;10.98;8.43;;;;;;;;;;2086984;28;20037;-67
2022/11/29 04:13:36;;;;;;;10.52;9.00;;;;;;;;;;2085619;28;20029;-67
2022/11/29 04:15:04;;;;;;;11.02;8.98;;;;;;;;;;2085142;28;20036;-68
2022/11/29 04:16:33;;;;;;;9.75;8.82;;;;;;;;;;2087147;28;20076;-67
2022/11/29 04:18:07;;;;;;;9.75;8.40;;;;;;;;;;2087027;28;20409;-67
2022/11/29 04:19:35;;;;;;;12.23;8.85;;;;;;;;;;2088778;28;20433;-67
2022/11/29 04:20:54;;;;;;;13.18;9.32;;;;;;;;;;2087932;28;20485;-67
2022/11/29 04:22:25;;;;;;;9.52;8.50;;;;;;;;;;2090009;28;20033;-67
2022/11/29 04:23:58;;;;;;;11.35;9.05;;;;;;;;;;2086952;28;20032;-67
2022/11/29 04:25:23;;;;;;;17.48;8.98;;;;;;;;;;2083267;28;20017;-67
2022/11/29 04:27:01;;;;;;;9.30;8.40;;;;;;;;;;2085591;28;20017;-67
2022/11/29 04:28:30;;;;;;;10.70;8.48;;;;;;;;;;2085578;28;20112;-67
2022/11/29 04:29:49;;;;;;;12.82;8.95;;;;;;;;;;2086198;28;20037;-67
2022/11/29 04:31:31;;;;;;;9.82;8.63;;;;;;;;;;2086755;28;20068;-67
2022/11/29 04:33:06;;;;;;;16.13;8.90;;;;;;;;;;2087723;28;20037;-67
2022/11/29 04:34:25;;;;;;;9.90;8.82;;;;;;;;;;2088811;28;20028;-67
2022/11/29 04:35:50;;;;;;;12.23;9.35;;;;;;;;;;2082949;28;20100;-67
2022/11/29 04:37:38;;;;;;;11.23;9.63;;;;;;;;;;2086427;28;20037;-67
2022/11/29 04:39:13;;;;;;;10.93;9.77;;;;;;;;;;2053185;28;20032;-67
2022/11/29 04:40:32;;;;;;;10.90;9.48;;;;;;;;;;2077155;28;20476;-67
2022/11/29 04:41:57;;;;;;;10.60;9.50;;;;;;;;;;2087089;28;20029;-67
2022/11/29 04:43:36;;;;;;;13.02;8.70;;;;;;;;;;2088475;28;20572;-67
2022/11/29 04:45:07;;;;;;;13.95;9.55;;;;;;;;;;2091352;28;20112;-67
2022/11/29 04:46:35;;;;;;;10.63;8.95;;;;;;;;;;2094813;28;20492;-67
2022/11/29 04:48:01;;;;;;;14.50;9.02;;;;;;;;;;2087266;28;20029;-67
2022/11/29 04:49:39;;;;;;;10.38;9.20;;;;;;;;;;2086801;28;20029;-67
2022/11/29 04:51:01;;;;;;;10.35;9.27;;;;;;;;;;2083855;28;20029;-67
2022/11/29 04:52:20;;;;;;;11.55;10.40;;;;;;;;;;2086941;28;20537;-67
2022/11/29 04:53:39;;;;;;;18.38;9.45;;;;;;;;;;2089341;28;20621;-66
2022/11/29 04:54:58;;;;;;;12.90;9.57;;;;;;;;;;2088847;28;20037;-66
2022/11/29 04:56:17;;;;;;;13.63;9.85;;;;;;;;;;2084482;28;20042;-67
2022/11/29 04:57:41;;;;;;;12.65;9.80;;;;;;;;;;2085762;28;20056;-67
2022/11/29 04:59:03;;;;;;;11.40;9.52;;;;;;;;;;2088250;28;20521;-68
2022/11/29 05:00:23;;;;;;;10.80;9.60;;;;;;;;;;2084217;28;20076;-67
2022/11/29 05:01:48;;;;;;;11.10;9.45;;;;;;;;;;2084722;28;20466;-67
2022/11/29 05:03:13;;;;;;;15.35;9.63;;;;;;;;;;2085277;28;20025;-67
2022/11/29 05:04:52;;;;;;;11.63;9.65;;;;;;;;;;2087209;28;20050;-67
2022/11/29 05:06:17;;;;;;;10.73;9.63;;;;;;;;;;2085024;28;20025;-67
2022/11/29 05:08:05;;;;;;;10.57;9.25;;;;;;;;;;2085196;28;20116;-67
2022/11/29 05:09:30;;;;;;;11.85;9.68;;;;;;;;;;2061492;28;20026;-67
2022/11/29 05:11:02;;;;;;;15.25;9.18;;;;;;;;;;2071912;28;20081;-67
2022/11/29 05:12:40;;;;;;;10.88;9.23;;;;;;;;;;2082248;28;20033;-66
2022/11/29 05:14:14;;;;;;;11.82;8.77;;;;;;;;;;2086197;28;20028;-66
2022/11/29 05:15:43;;;;;;;12.88;9.57;;;;;;;;;;2084405;28;20056;-66
2022/11/29 05:17:05;;;;;;;12.70;9.25;;;;;;;;;;2084375;28;20428;-67
2022/11/29 05:18:36;;;;;;;11.50;9.18;;;;;;;;;;2086246;28;20037;-66
2022/11/29 05:19:55;;;;;;;10.15;8.32;;;;;;;;;;2086340;28;20026;-67
2022/11/29 05:21:33;;;;;;;13.30;9.25;;;;;;;;;;2084418;28;20053;-66
2022/11/29 05:23:01;;;;;;;11.82;9.07;;;;;;;;;;2086521;28;20033;-67
2022/11/29 05:24:32;;;;;;;9.60;8.63;;;;;;;;;;2086705;28;20481;-67
2022/11/29 05:25:55;;;;;;;10.48;8.52;;;;;;;;;;2085894;28;20037;-67
2022/11/29 05:27:18;;;;;;;13.85;9.13;;;;;;;;;;2086787;28;20439;-66
2022/11/29 05:28:40;;;;;;;10.48;8.60;;;;;;;;;;2086882;28;20033;-67
2022/11/29 05:30:06;;;;;;;37.15;23.00;;;;;;;;;;2085251;28;20482;-67
2022/11/29 05:31:33;;;;;;;23.20;14.30;;;;;;;;;;2088588;28;20033;-67
2022/11/29 05:32:56;;;;;;;9.50;8.50;;;;;;;;;;2085536;28;20021;-67
2022/11/29 05:34:24;;;;;;;12.25;8.50;;;;;;;;;;2079361;28;20030;-67
2022/11/29 05:35:57;;;;;;;9.27;8.25;;;;;;;;;;2082797;28;20068;-68
2022/11/29 05:37:22;;;;;;;12.93;9.07;;;;;;;;;;2081110;28;20033;-66
2022/11/29 05:38:48;;;;;;;14.20;8.52;;;;;;;;;;2086023;28;20033;-67
2022/11/29 05:40:13;;;;;;;13.38;9.10;;;;;;;;;;2087870;28;20033;-66
2022/11/29 05:41:50;;;;;;;11.95;8.77;;;;;;;;;;2084990;28;20053;-67
2022/11/29 05:43:29;;;;;;;11.15;8.98;;;;;;;;;;2084110;28;20501;-66
2022/11/29 05:44:58;;;;;;;10.52;8.30;;;;;;;;;;2087140;28;20029;-67
2022/11/29 05:46:20;;;;;;;9.00;7.70;;;;;;;;;;2087000;28;20033;-67
2022/11/29 05:47:42;;;;;;;9.60;8.50;;;;;;;;;;2083876;28;20041;-67
2022/11/29 05:49:15;;;;;;;9.60;8.60;;;;;;;;;;2084074;28;20508;-67
2022/11/29 05:50:41;;;;;;;10.30;8.85;;;;;;;;;;2086430;28;20400;-67
2022/11/29 05:52:16;;;;;;;14.70;9.27;;;;;;;;;;2085508;28;20041;-67
2022/11/29 05:53:38;;;;;;;11.02;8.25;;;;;;;;;;2085435;28;20033;-67
2022/11/29 05:55:06;;;;;;;12.10;9.25;;;;;;;;;;2087710;28;20034;-67
2022/11/29 05:56:31;;;;;;;10.82;8.85;;;;;;;;;;2086239;28;20029;-67
2022/11/29 05:57:53;;;;;;;9.70;8.63;;;;;;;;;;2085754;28;20033;-66
2022/11/29 05:59:16;;;;;;;10.73;8.82;;;;;;;;;;2083313;28;20033;-67
2022/11/29 06:00:54;;;;;;;9.15;8.15;;;;;;;;;;2081664;28;20398;-67
2022/11/29 06:02:29;;;;;;;9.23;8.38;;;;;;;;;;2082023;28;20478;-68
2022/11/29 06:04:07;;;;;;;13.02;8.00;;;;;;;;;;2080965;28;20072;-68
2022/11/29 06:05:29;;;;;;;8.93;7.97;;;;;;;;;;2086217;28;20028;-67
2022/11/29 06:06:59;;;;;;;12.88;8.55;;;;;;;;;;2084042;28;20500;-68
2022/11/29 06:08:21;;;;;;;11.40;8.38;;;;;;;;;;2084270;28;20415;-67
2022/11/29 06:09:43;;;;;;;10.35;8.23;;;;;;;;;;2088547;28;20116;-67
2022/11/29 06:11:05;;;;;;;9.50;8.43;;;;;;;;;;2082795;28;20056;-67
2022/11/29 06:12:25;;;;;;;9.18;8.18;;;;;;;;;;2085391;28;20052;-68
2022/11/29 06:13:49;;;;;;;12.77;8.80;;;;;;;;;;2080622;28;20036;-67
2022/11/29 06:15:32;;;;;;;9.25;8.40;;;;;;;;;;2081463;28;20041;-67
2022/11/29 06:16:51;;;;;;;9.90;8.90;;;;;;;;;;2085221;28;20034;-67
2022/11/29 06:18:33;;;;;;;10.45;8.57;;;;;;;;;;2084750;28;20116;-67
2022/11/29 06:19:52;;;;;;;10.57;8.20;;;;;;;;;;2086450;28;20060;-67
2022/11/29 06:21:21;;;;;;;9.90;8.25;;;;;;;;;;2082783;28;20021;-67
2022/11/29 06:22:43;;;;;;;9.38;8.00;;;;;;;;;;2082046;28;20025;-68
2022/11/29 06:24:13;;;;;;;11.10;7.55;;;;;;;;;;2086483;28;20021;-68
2022/11/29 06:25:56;;;;;;;10.52;8.07;;;;;;;;;;2080749;28;20029;-67
2022/11/29 06:27:35;;;;;;;9.27;7.50;;;;;;;;;;2085869;28;20025;-67
2022/11/29 06:29:06;;;;;;;11.73;7.65;;;;;;;;;;2084421;28;20029;-67
2022/11/29 06:30:28;;;;;;;8.50;7.68;;;;;;;;;;2082006;28;20277;-67
2022/11/29 06:32:01;;;;;;;8.93;6.70;;;;;;;;;;2086595;28;20223;-67
2022/11/29 06:33:22;;;;;;;12.57;8.32;;;;;;;;;;2084870;28;20029;-67
2022/11/29 06:34:48;;;;;;;9.40;8.40;;;;;;;;;;2085106;28;20021;-67
2022/11/29 06:36:18;;;;;;;10.00;7.75;;;;;;;;;;2086404;28;20025;-67
2022/11/29 06:37:40;;;;;;;10.70;7.70;;;;;;;;;;2087642;28;20029;-67
2022/11/29 06:38:59;;;;;;;8.95;7.53;;;;;;;;;;2087582;28;20414;-67
2022/11/29 06:40:18;;;;;;;8.95;8.02;;;;;;;;;;2083671;28;20489;-68
2022/11/29 06:41:37;;;;;;;8.63;7.35;;;;;;;;;;2084857;28;20116;-67
2022/11/29 06:42:56;;;;;;;7.82;6.78;;;;;;;;;;2084873;28;20025;-67
2022/11/29 06:44:15;;;;;;;9.25;7.28;;;;;;;;;;2086136;28;20029;-67
2022/11/29 06:45:34;;;;;;;10.55;7.75;;;;;;;;;;2080132;28;20406;-67
2022/11/29 06:46:57;;;;;;;10.57;7.70;;;;;;;;;;2081729;28;20093;-67
2022/11/29 06:48:16;;;;;;;;;;;;;;;;;;2085221;28;20037;-67
2022/11/29 06:49:49;;;;;;;8.52;7.20;;;;;;;;;;2083979;28;19987;-67
2022/11/29 06:51:18;;;;;;;8.35;7.05;;;;;;;;;;2085003;28;20041;-67
2022/11/29 06:52:47;;;;;;;8.98;7.20;;;;;;;;;;2084476;28;20402;-68
2022/11/29 06:54:05;;;;;;;9.55;8.00;;;;;;;;;;2091553;28;20424;-67
2022/11/29 06:55:34;;;;;;;8.38;7.50;;;;;;;;;;2086297;28;20591;-67
2022/11/29 06:57:12;;;;;;;8.35;7.32;;;;;;;;;;2085637;28;20048;-67
2022/11/29 06:58:31;;;;;;;8.32;6.63;;;;;;;;;;2081823;28;20508;-67
2022/11/29 06:59:53;;;;;;;7.95;7.15;;;;;;;;;;2081303;28;20513;-67
2022/11/29 07:01:18;;;;;;;5.75;5.15;;;;;;;;;;2082369;28;20386;-67
2022/11/29 07:02:37;;;;;;;10.48;7.00;;;;;;;;;;2085628;28;20405;-67
2022/11/29 07:04:01;;;;;;;11.23;8.23;;;;;;;;;;2081754;28;20049;-67
2022/11/29 07:05:26;;;;;;;10.02;7.75;;;;;;;;;;2086358;28;20029;-67
2022/11/29 07:06:45;;;;;;;11.30;7.07;;;;;;;;;;2082640;28;20486;-66
2022/11/29 07:08:10;;;;;;;8.43;7.28;;;;;;;;;;2085899;28;20025;-67
2022/11/29 07:09:32;;;;;;;9.05;7.40;;;;;;;;;;2087068;28;20037;-67
2022/11/29 07:10:53;;;;;;;7.82;7.03;;;;;;;;;;2084294;28;20048;-67
2022/11/29 07:12:13;;;;;;;10.40;7.10;;;;;;;;;;2084293;28;20029;-67
2022/11/29 07:13:31;;;;;;;7.95;7.15;;;;;;;;;;2081368;28;20103;-66
2022/11/29 07:14:50;;;;;;;8.23;7.03;;;;;;;;;;2085679;28;20028;-67
2022/11/29 07:16:09;;;;;;;7.60;6.90;;;;;;;;;;2084180;28;20447;-67
2022/11/29 07:17:28;;;;;;;9.88;7.30;;;;;;;;;;2086863;28;20029;-67
2022/11/29 07:18:47;;;;;;;7.93;6.95;;;;;;;;;;2086689;28;20043;-66
2022/11/29 07:20:07;;;;;;;7.80;6.75;;;;;;;;;;2086459;28;20026;-67
2022/11/29 07:21:43;;;;;;;8.40;6.88;;;;;;;;;;2085399;28;20481;-66
2022/11/29 07:23:08;;;;;;;10.30;7.28;;;;;;;;;;2085358;28;20041;-67
2022/11/29 07:24:46;;;;;;;8.38;7.45;;;;;;;;;;2084114;28;20430;-66
2022/11/29 07:26:09;;;;;;;11.82;7.13;;;;;;;;;;2081077;28;20029;-67
2022/11/29 07:27:41;;;;;;;13.52;7.95;;;;;;;;;;2086782;28;20556;-67
2022/11/29 07:29:18;;;;;;;10.93;6.80;;;;;;;;;;2085788;28;20029;-67
2022/11/29 07:30:44;;;;;;;8.68;6.88;;;;;;;;;;2084819;28;20025;-67
2022/11/29 07:32:06;;;;;;;8.70;7.80;;;;;;;;;;2083445;28;20030;-67
2022/11/29 07:33:31;;;;;;;7.93;6.90;;;;;;;;;;2081934;28;20028;-67
2022/11/29 07:34:53;;;;;;;8.43;7.25;;;;;;;;;;2078332;28;20045;-66
2022/11/29 07:36:25;;;;;;;7.82;6.78;;;;;;;;;;2085841;28;20018;-66
2022/11/29 07:38:02;;;;;;;9.10;6.45;;;;;;;;;;2084953;28;20029;-66
2022/11/29 07:39:20;;;;;;;9.65;7.45;;;;;;;;;;2083462;28;20080;-67
2022/11/29 07:40:58;;;;;;;8.55;7.35;;;;;;;;;;2084426;28;20021;-67
2022/11/29 07:42:37;;;;;;;9.75;7.20;;;;;;;;;;2082344;28;20462;-67
2022/11/29 07:44:04;;;;;;;9.98;8.10;;;;;;;;;;2060446;28;20113;-66
2022/11/29 07:45:23;;;;;;;10.32;7.32;;;;;;;;;;2083154;28;20041;-67
2022/11/29 07:46:42;;;;;;;9.82;7.25;;;;;;;;;;2083173;28;20026;-67
2022/11/29 07:48:01;;;;;;;12.50;7.63;;;;;;;;;;2084436;28;20064;-67
2022/11/29 07:49:20;;;;;;;9.88;7.40;;;;;;;;;;2084174;28;20469;-67
2022/11/29 07:50:40;;;;;;;12.95;7.32;;;;;;;;;;2083364;28;20541;-66
2022/11/29 07:51:58;;;;;;;11.18;7.57;;;;;;;;;;2088638;28;20021;-68
2022/11/29 07:53:18;;;;;;;11.75;7.05;;;;;;;;;;2080828;28;20045;-66
2022/11/29 07:54:38;;;;;;;12.27;7.70;;;;;;;;;;2085071;28;20397;-66
2022/11/29 07:55:57;;;;;;;13.30;8.05;;;;;;;;;;2085956;28;20033;-67
2022/11/29 07:57:16;;;;;;;9.18;7.53;;;;;;;;;;2086699;28;20032;-66
2022/11/29 07:58:35;;;;;;;8.77;7.50;;;;;;;;;;2083349;28;20060;-67
2022/11/29 07:59:54;;;;;;;9.80;7.32;;;;;;;;;;2081641;28;20029;-66
2022/11/29 08:01:13;;;;;;;8.00;7.20;;;;;;;;;;2083211;28;20033;-66
2022/11/29 08:02:32;;;;;;;7.97;7.22;;;;;;;;;;2082580;28;20045;-67
2022/11/29 08:03:51;;;;;;;9.85;7.20;;;;;;;;;;2079796;28;20057;-67
2022/11/29 08:05:10;;;;;;;9.55;6.65;;;;;;;;;;2085376;28;20030;-66
2022/11/29 08:06:29;;;;;;;9.05;6.78;;;;;;;;;;2087911;28;20056;-66
2022/11/29 08:07:48;;;;;;;9.18;6.28;;;;;;;;;;2087397;28;20025;-66
2022/11/29 08:09:07;;;;;;;9.18;7.15;;;;;;;;;;2084718;28;20021;-67
2022/11/29 08:10:26;;;;;;;7.18;6.38;;;;;;;;;;2086860;28;20573;-66
2022/11/29 08:11:45;;;;;;;8.18;6.90;;;;;;;;;;2086277;28;20041;-66
2022/11/29 08:13:04;;;;;;;8.65;7.43;;;;;;;;;;2082195;28;20438;-66
2022/11/29 08:14:23;;;;;;;7.47;6.78;;;;;;;;;;2086288;28;20029;-67
2022/11/29 08:15:43;;;;;;;11.43;6.97;;;;;;;;;;2083092;28;20116;-67
2022/11/29 08:17:02;;;;;;;9.15;6.97;;;;;;;;;;2086048;28;20025;-66
2022/11/29 08:18:21;;;;;;;7.85;7.07;;;;;;;;;;2086753;28;20041;-66
2022/11/29 08:19:40;;;;;;;10.30;6.72;;;;;;;;;;2083401;28;20025;-66
2022/11/29 08:21:03;;;;;;;9.40;6.85;;;;;;;;;;2083466;28;20053;-66
2022/11/29 08:22:22;;;;;;;9.55;7.30;;;;;;;;;;2079228;28;20029;-65
2022/11/29 08:23:41;;;;;;;7.35;6.65;;;;;;;;;;2081516;28;20036;-66
2022/11/29 08:25:00;;;;;;;9.55;6.97;;;;;;;;;;2083874;28;20044;-66